sensor_id;sensor_type;location;lat;lon;timestamp;temperature;humidity
68691;DHT22;55675;49.588;8.640;2023-03-05T00:01:07;7.70;77.00
68691;DHT22;55675;49.588;8.640;2023-03-05T00:03:33;7.60;77.10
68691;DHT22;55675;49.588;8.640;2023-03-05T00:05:58;7.60;77.20
68691;DHT22;55675;49.588;8.640;2023-03-05T00:08:24;7.60;77.20
68691;DHT22;55675;49.588;8.640;2023-03-05T00:11:06;7.60;77.30
68691;DHT22;55675;49.588;8.640;2023-03-05T00:13:31;7.60;77.30
68691;DHT22;55675;49.588;8.640;2023-03-05T00:15:57;7.60;77.30
68691;DHT22;55675;49.588;8.640;2023-03-05T00:18:22;7.60;77.40
68691;DHT22;55675;49.588;8.640;2023-03-05T00:20:48;7.60;77.40
68691;DHT22;55675;49.588;8.640;2023-03-05T00:23:14;7.60;77.50
68691;DHT22;55675;49.588;8.640;2023-03-05T00:25:39;7.60;77.40
68691;DHT22;55675;49.588;8.640;2023-03-05T00:28:05;7.60;77.30
68691;DHT22;55675;49.588;8.640;2023-03-05T00:30:31;7.60;77.30
68691;DHT22;55675;49.588;8.640;2023-03-05T00:32:56;7.60;77.20
68691;DHT22;55675;49.588;8.640;2023-03-05T00:35:22;7.60;77.20
68691;DHT22;55675;49.588;8.640;2023-03-05T00:37:47;7.60;77.20
68691;DHT22;55675;49.588;8.640;2023-03-05T00:40:13;7.50;77.10
68691;DHT22;55675;49.588;8.640;2023-03-05T00:42:38;7.50;77.20
68691;DHT22;55675;49.588;8.640;2023-03-05T00:45:04;7.50;77.30
68691;DHT22;55675;49.588;8.640;2023-03-05T00:47:30;7.50;77.30
68691;DHT22;55675;49.588;8.640;2023-03-05T00:49:56;7.50;77.40
68691;DHT22;55675;49.588;8.640;2023-03-05T00:52:21;7.40;77.40
68691;DHT22;55675;49.588;8.640;2023-03-05T00:54:47;7.40;77.50
68691;DHT22;55675;49.588;8.640;2023-03-05T00:57:12;7.40;78.20
68691;DHT22;55675;49.588;8.640;2023-03-05T00:59:38;7.40;77.50
68691;DHT22;55675;49.588;8.640;2023-03-05T01:02:03;7.40;77.50
68691;DHT22;55675;49.588;8.640;2023-03-05T01:04:29;7.40;77.60
68691;DHT22;55675;49.588;8.640;2023-03-05T01:06:54;7.40;77.70
68691;DHT22;55675;49.588;8.640;2023-03-05T01:09:20;7.30;77.70
68691;DHT22;55675;49.588;8.640;2023-03-05T01:11:46;7.30;77.70
68691;DHT22;55675;49.588;8.640;2023-03-05T01:14:12;7.30;77.70
68691;DHT22;55675;49.588;8.640;2023-03-05T01:16:37;7.30;77.80
68691;DHT22;55675;49.588;8.640;2023-03-05T01:19:02;7.30;77.80
68691;DHT22;55675;49.588;8.640;2023-03-05T01:21:28;7.30;77.70
68691;DHT22;55675;49.588;8.640;2023-03-05T01:23:54;7.30;77.70
68691;DHT22;55675;49.588;8.640;2023-03-05T01:26:19;7.30;77.80
68691;DHT22;55675;49.588;8.640;2023-03-05T01:28:45;7.30;77.90
68691;DHT22;55675;49.588;8.640;2023-03-05T01:31:10;7.30;77.80
68691;DHT22;55675;49.588;8.640;2023-03-05T01:33:36;7.30;77.80
68691;DHT22;55675;49.588;8.640;2023-03-05T01:36:05;7.30;77.80
68691;DHT22;55675;49.588;8.640;2023-03-05T01:38:30;7.20;77.80
68691;DHT22;55675;49.588;8.640;2023-03-05T01:40:56;7.20;77.70
68691;DHT22;55675;49.588;8.640;2023-03-05T01:43:23;7.20;77.70
68691;DHT22;55675;49.588;8.640;2023-03-05T01:48:33;7.20;77.70
68691;DHT22;55675;49.588;8.640;2023-03-05T01:50:58;7.20;77.70
68691;DHT22;55675;49.588;8.640;2023-03-05T01:53:23;7.20;77.70
68691;DHT22;55675;49.588;8.640;2023-03-05T01:55:49;7.10;77.70
68691;DHT22;55675;49.588;8.640;2023-03-05T01:58:14;7.10;77.80
68691;DHT22;55675;49.588;8.640;2023-03-05T02:00:41;7.10;77.90
68691;DHT22;55675;49.588;8.640;2023-03-05T02:03:08;7.10;77.90
68691;DHT22;55675;49.588;8.640;2023-03-05T02:05:35;7.10;78.00
68691;DHT22;55675;49.588;8.640;2023-03-05T02:08:02;7.10;77.90
68691;DHT22;55675;49.588;8.640;2023-03-05T02:10:30;7.10;78.10
68691;DHT22;55675;49.588;8.640;2023-03-05T02:12:57;7.10;78.20
68691;DHT22;55675;49.588;8.640;2023-03-05T02:15:23;7.10;78.20
68691;DHT22;55675;49.588;8.640;2023-03-05T02:17:49;7.10;78.10
68691;DHT22;55675;49.588;8.640;2023-03-05T02:20:16;7.10;78.10
68691;DHT22;55675;49.588;8.640;2023-03-05T02:22:42;7.10;78.20
68691;DHT22;55675;49.588;8.640;2023-03-05T02:25:11;7.10;78.10
68691;DHT22;55675;49.588;8.640;2023-03-05T02:27:37;7.10;78.10
68691;DHT22;55675;49.588;8.640;2023-03-05T02:30:04;7.10;78.10
68691;DHT22;55675;49.588;8.640;2023-03-05T02:32:30;7.10;78.10
68691;DHT22;55675;49.588;8.640;2023-03-05T02:34:56;7.10;78.00
68691;DHT22;55675;49.588;8.640;2023-03-05T02:37:21;7.10;77.80
68691;DHT22;55675;49.588;8.640;2023-03-05T02:39:47;7.10;77.80
68691;DHT22;55675;49.588;8.640;2023-03-05T02:42:12;7.00;77.80
68691;DHT22;55675;49.588;8.640;2023-03-05T02:44:38;7.00;77.80
68691;DHT22;55675;49.588;8.640;2023-03-05T02:47:03;7.00;77.90
68691;DHT22;55675;49.588;8.640;2023-03-05T02:49:29;7.00;77.90
68691;DHT22;55675;49.588;8.640;2023-03-05T02:51:54;7.00;78.00
68691;DHT22;55675;49.588;8.640;2023-03-05T02:54:20;7.00;78.10
68691;DHT22;55675;49.588;8.640;2023-03-05T02:56:45;7.00;78.20
68691;DHT22;55675;49.588;8.640;2023-03-05T02:59:11;7.00;78.30
68691;DHT22;55675;49.588;8.640;2023-03-05T03:01:36;6.90;78.30
68691;DHT22;55675;49.588;8.640;2023-03-05T03:04:02;7.00;78.40
68691;DHT22;55675;49.588;8.640;2023-03-05T03:06:27;6.90;78.40
68691;DHT22;55675;49.588;8.640;2023-03-05T03:08:52;6.90;78.50
68691;DHT22;55675;49.588;8.640;2023-03-05T03:11:18;6.90;78.50
68691;DHT22;55675;49.588;8.640;2023-03-05T03:13:45;6.90;78.60
68691;DHT22;55675;49.588;8.640;2023-03-05T03:16:12;6.90;78.60
68691;DHT22;55675;49.588;8.640;2023-03-05T03:18:37;7.00;78.60
68691;DHT22;55675;49.588;8.640;2023-03-05T03:21:03;7.00;78.70
68691;DHT22;55675;49.588;8.640;2023-03-05T03:23:29;7.00;78.50
68691;DHT22;55675;49.588;8.640;2023-03-05T03:25:55;7.00;78.40
68691;DHT22;55675;49.588;8.640;2023-03-05T03:28:20;7.10;78.50
68691;DHT22;55675;49.588;8.640;2023-03-05T03:30:46;7.10;78.40
68691;DHT22;55675;49.588;8.640;2023-03-05T03:33:11;7.10;78.40
68691;DHT22;55675;49.588;8.640;2023-03-05T03:35:37;7.00;78.30
68691;DHT22;55675;49.588;8.640;2023-03-05T03:38:02;7.00;78.30
68691;DHT22;55675;49.588;8.640;2023-03-05T03:40:28;7.10;78.50
68691;DHT22;55675;49.588;8.640;2023-03-05T03:42:53;7.00;78.40
68691;DHT22;55675;49.588;8.640;2023-03-05T03:45:19;7.00;78.30
68691;DHT22;55675;49.588;8.640;2023-03-05T03:47:49;7.00;78.30
68691;DHT22;55675;49.588;8.640;2023-03-05T03:50:15;7.00;78.40
68691;DHT22;55675;49.588;8.640;2023-03-05T03:52:40;7.00;78.50
68691;DHT22;55675;49.588;8.640;2023-03-05T03:55:06;7.00;78.60
68691;DHT22;55675;49.588;8.640;2023-03-05T03:57:32;7.00;78.90
68691;DHT22;55675;49.588;8.640;2023-03-05T04:00:00;7.00;78.90
68691;DHT22;55675;49.588;8.640;2023-03-05T04:02:25;7.00;78.70
68691;DHT22;55675;49.588;8.640;2023-03-05T04:04:51;7.00;78.80
68691;DHT22;55675;49.588;8.640;2023-03-05T04:07:17;7.00;78.80
68691;DHT22;55675;49.588;8.640;2023-03-05T04:09:42;7.00;78.80
68691;DHT22;55675;49.588;8.640;2023-03-05T04:12:08;7.00;78.90
68691;DHT22;55675;49.588;8.640;2023-03-05T04:14:33;7.00;79.20
68691;DHT22;55675;49.588;8.640;2023-03-05T04:16:59;7.00;79.20
68691;DHT22;55675;49.588;8.640;2023-03-05T04:19:24;7.00;79.20
68691;DHT22;55675;49.588;8.640;2023-03-05T04:21:50;6.90;79.20
68691;DHT22;55675;49.588;8.640;2023-03-05T04:24:15;6.90;79.30
68691;DHT22;55675;49.588;8.640;2023-03-05T04:26:40;6.90;79.20
68691;DHT22;55675;49.588;8.640;2023-03-05T04:29:06;6.90;79.20
68691;DHT22;55675;49.588;8.640;2023-03-05T04:31:31;6.90;79.30
68691;DHT22;55675;49.588;8.640;2023-03-05T04:33:58;6.80;79.40
68691;DHT22;55675;49.588;8.640;2023-03-05T04:36:23;6.80;79.50
68691;DHT22;55675;49.588;8.640;2023-03-05T04:38:48;6.80;79.80
68691;DHT22;55675;49.588;8.640;2023-03-05T04:41:14;6.70;79.90
68691;DHT22;55675;49.588;8.640;2023-03-05T04:43:39;6.70;79.90
68691;DHT22;55675;49.588;8.640;2023-03-05T04:46:05;6.70;80.10
68691;DHT22;55675;49.588;8.640;2023-03-05T04:48:30;6.60;80.30
68691;DHT22;55675;49.588;8.640;2023-03-05T04:50:56;6.60;80.50
68691;DHT22;55675;49.588;8.640;2023-03-05T04:53:22;6.60;80.60
68691;DHT22;55675;49.588;8.640;2023-03-05T04:55:51;6.60;80.90
68691;DHT22;55675;49.588;8.640;2023-03-05T04:58:16;6.60;80.80
68691;DHT22;55675;49.588;8.640;2023-03-05T05:00:42;6.50;80.80
68691;DHT22;55675;49.588;8.640;2023-03-05T05:03:07;6.60;81.10
68691;DHT22;55675;49.588;8.640;2023-03-05T05:05:33;6.60;81.00
68691;DHT22;55675;49.588;8.640;2023-03-05T05:07:58;6.50;80.90
68691;DHT22;55675;49.588;8.640;2023-03-05T05:10:24;6.50;81.10
68691;DHT22;55675;49.588;8.640;2023-03-05T05:12:49;6.50;81.10
68691;DHT22;55675;49.588;8.640;2023-03-05T05:15:15;6.50;81.00
68691;DHT22;55675;49.588;8.640;2023-03-05T05:17:40;6.60;81.00
68691;DHT22;55675;49.588;8.640;2023-03-05T05:20:06;6.60;80.90
68691;DHT22;55675;49.588;8.640;2023-03-05T05:22:32;6.60;80.90
68691;DHT22;55675;49.588;8.640;2023-03-05T05:24:58;6.60;80.80
68691;DHT22;55675;49.588;8.640;2023-03-05T05:27:23;6.70;80.90
68691;DHT22;55675;49.588;8.640;2023-03-05T05:29:49;6.60;80.90
68691;DHT22;55675;49.588;8.640;2023-03-05T05:32:18;6.70;80.90
68691;DHT22;55675;49.588;8.640;2023-03-05T05:34:43;6.70;80.90
68691;DHT22;55675;49.588;8.640;2023-03-05T05:37:09;6.70;80.80
68691;DHT22;55675;49.588;8.640;2023-03-05T05:39:34;6.70;80.70
68691;DHT22;55675;49.588;8.640;2023-03-05T05:42:00;6.70;80.70
68691;DHT22;55675;49.588;8.640;2023-03-05T05:44:25;6.80;80.80
68691;DHT22;55675;49.588;8.640;2023-03-05T05:46:51;6.80;80.50
68691;DHT22;55675;49.588;8.640;2023-03-05T05:49:16;6.80;80.60
68691;DHT22;55675;49.588;8.640;2023-03-05T05:51:41;6.80;80.50
68691;DHT22;55675;49.588;8.640;2023-03-05T05:54:08;6.80;80.40
68691;DHT22;55675;49.588;8.640;2023-03-05T05:56:34;6.90;80.40
68691;DHT22;55675;49.588;8.640;2023-03-05T05:59:01;6.90;80.40
68691;DHT22;55675;49.588;8.640;2023-03-05T06:01:30;6.90;80.50
68691;DHT22;55675;49.588;8.640;2023-03-05T06:03:56;6.90;80.40
68691;DHT22;55675;49.588;8.640;2023-03-05T06:06:22;6.90;80.50
68691;DHT22;55675;49.588;8.640;2023-03-05T06:08:48;6.90;80.40
68691;DHT22;55675;49.588;8.640;2023-03-05T06:11:13;6.90;80.40
68691;DHT22;55675;49.588;8.640;2023-03-05T06:13:39;6.80;80.40
68691;DHT22;55675;49.588;8.640;2023-03-05T06:16:06;6.80;80.60
68691;DHT22;55675;49.588;8.640;2023-03-05T06:18:32;6.80;80.60
68691;DHT22;55675;49.588;8.640;2023-03-05T06:20:59;6.90;80.70
68691;DHT22;55675;49.588;8.640;2023-03-05T06:23:25;6.90;80.80
68691;DHT22;55675;49.588;8.640;2023-03-05T06:25:51;6.90;80.80
68691;DHT22;55675;49.588;8.640;2023-03-05T06:28:17;6.90;80.80
68691;DHT22;55675;49.588;8.640;2023-03-05T06:30:43;6.90;80.80
68691;DHT22;55675;49.588;8.640;2023-03-05T06:33:08;6.90;80.80
68691;DHT22;55675;49.588;8.640;2023-03-05T06:35:34;6.90;80.80
68691;DHT22;55675;49.588;8.640;2023-03-05T06:38:01;6.90;80.70
68691;DHT22;55675;49.588;8.640;2023-03-05T06:40:27;6.90;80.70
68691;DHT22;55675;49.588;8.640;2023-03-05T06:42:53;6.90;80.60
68691;DHT22;55675;49.588;8.640;2023-03-05T06:45:18;6.90;80.50
68691;DHT22;55675;49.588;8.640;2023-03-05T06:47:43;6.90;80.50
68691;DHT22;55675;49.588;8.640;2023-03-05T06:50:09;6.90;80.50
68691;DHT22;55675;49.588;8.640;2023-03-05T06:52:35;6.90;80.60
68691;DHT22;55675;49.588;8.640;2023-03-05T06:55:00;7.00;80.60
68691;DHT22;55675;49.588;8.640;2023-03-05T06:57:25;6.90;80.50
68691;DHT22;55675;49.588;8.640;2023-03-05T06:59:51;7.00;80.60
68691;DHT22;55675;49.588;8.640;2023-03-05T07:02:16;7.00;80.60
68691;DHT22;55675;49.588;8.640;2023-03-05T07:04:43;7.10;80.60
68691;DHT22;55675;49.588;8.640;2023-03-05T07:07:08;7.10;80.50
68691;DHT22;55675;49.588;8.640;2023-03-05T07:09:34;7.10;80.40
68691;DHT22;55675;49.588;8.640;2023-03-05T07:11:59;7.10;80.40
68691;DHT22;55675;49.588;8.640;2023-03-05T07:14:25;7.10;80.30
68691;DHT22;55675;49.588;8.640;2023-03-05T07:16:50;7.20;80.40
68691;DHT22;55675;49.588;8.640;2023-03-05T07:19:16;7.20;80.30
68691;DHT22;55675;49.588;8.640;2023-03-05T07:21:41;7.30;80.30
68691;DHT22;55675;49.588;8.640;2023-03-05T07:24:07;7.30;80.20
68691;DHT22;55675;49.588;8.640;2023-03-05T07:26:32;7.40;80.30
68691;DHT22;55675;49.588;8.640;2023-03-05T07:28:58;7.40;80.30
68691;DHT22;55675;49.588;8.640;2023-03-05T07:31:24;7.40;80.20
68691;DHT22;55675;49.588;8.640;2023-03-05T07:33:55;7.50;80.20
68691;DHT22;55675;49.588;8.640;2023-03-05T07:36:21;7.50;80.10
68691;DHT22;55675;49.588;8.640;2023-03-05T07:38:47;7.50;80.00
68691;DHT22;55675;49.588;8.640;2023-03-05T07:41:13;7.50;80.00
68691;DHT22;55675;49.588;8.640;2023-03-05T07:43:39;7.60;80.00
68691;DHT22;55675;49.588;8.640;2023-03-05T07:46:05;7.70;79.90
68691;DHT22;55675;49.588;8.640;2023-03-05T07:48:31;7.70;79.80
68691;DHT22;55675;49.588;8.640;2023-03-05T07:51:04;7.80;79.80
68691;DHT22;55675;49.588;8.640;2023-03-05T07:53:30;7.80;79.90
68691;DHT22;55675;49.588;8.640;2023-03-05T07:55:55;7.80;79.90
68691;DHT22;55675;49.588;8.640;2023-03-05T07:58:21;7.80;79.80
68691;DHT22;55675;49.588;8.640;2023-03-05T08:00:46;7.90;79.90
68691;DHT22;55675;49.588;8.640;2023-03-05T08:03:12;7.90;79.80
68691;DHT22;55675;49.588;8.640;2023-03-05T08:05:38;7.90;79.80
68691;DHT22;55675;49.588;8.640;2023-03-05T08:08:04;8.00;79.80
68691;DHT22;55675;49.588;8.640;2023-03-05T08:10:29;8.10;80.40
68691;DHT22;55675;49.588;8.640;2023-03-05T08:12:55;8.20;79.50
68691;DHT22;55675;49.588;8.640;2023-03-05T08:15:20;8.20;79.30
68691;DHT22;55675;49.588;8.640;2023-03-05T08:17:46;8.20;79.20
68691;DHT22;55675;49.588;8.640;2023-03-05T08:20:11;8.30;79.20
68691;DHT22;55675;49.588;8.640;2023-03-05T08:22:37;8.30;79.10
68691;DHT22;55675;49.588;8.640;2023-03-05T08:25:03;8.40;78.90
68691;DHT22;55675;49.588;8.640;2023-03-05T08:27:29;8.40;78.80
68691;DHT22;55675;49.588;8.640;2023-03-05T08:29:55;8.50;78.60
68691;DHT22;55675;49.588;8.640;2023-03-05T08:32:20;8.50;78.10
68691;DHT22;55675;49.588;8.640;2023-03-05T08:34:46;8.60;78.00
68691;DHT22;55675;49.588;8.640;2023-03-05T08:37:11;8.60;77.80
68691;DHT22;55675;49.588;8.640;2023-03-05T08:39:37;8.70;77.20
68691;DHT22;55675;49.588;8.640;2023-03-05T08:42:03;8.70;76.50
68691;DHT22;55675;49.588;8.640;2023-03-05T08:44:29;8.80;76.90
68691;DHT22;55675;49.588;8.640;2023-03-05T08:46:54;8.90;76.90
68691;DHT22;55675;49.588;8.640;2023-03-05T08:49:21;9.10;76.90
68691;DHT22;55675;49.588;8.640;2023-03-05T08:51:46;9.20;76.70
68691;DHT22;55675;49.588;8.640;2023-03-05T08:54:12;9.40;76.40
68691;DHT22;55675;49.588;8.640;2023-03-05T08:56:37;9.50;75.40
68691;DHT22;55675;49.588;8.640;2023-03-05T08:59:03;9.60;75.20
68691;DHT22;55675;49.588;8.640;2023-03-05T09:01:29;9.60;73.80
68691;DHT22;55675;49.588;8.640;2023-03-05T09:03:57;9.60;71.80
68691;DHT22;55675;49.588;8.640;2023-03-05T09:06:22;9.60;72.60
68691;DHT22;55675;49.588;8.640;2023-03-05T09:08:48;9.70;73.00
68691;DHT22;55675;49.588;8.640;2023-03-05T09:11:13;9.80;72.20
68691;DHT22;55675;49.588;8.640;2023-03-05T09:13:39;9.90;72.90
68691;DHT22;55675;49.588;8.640;2023-03-05T09:16:05;10.10;72.60
68691;DHT22;55675;49.588;8.640;2023-03-05T09:18:31;10.20;72.00
68691;DHT22;55675;49.588;8.640;2023-03-05T09:20:57;10.30;71.60
68691;DHT22;55675;49.588;8.640;2023-03-05T09:23:22;10.40;70.10
68691;DHT22;55675;49.588;8.640;2023-03-05T09:25:48;10.40;70.20
68691;DHT22;55675;49.588;8.640;2023-03-05T09:28:13;10.50;70.20
68691;DHT22;55675;49.588;8.640;2023-03-05T09:30:39;10.60;69.90
68691;DHT22;55675;49.588;8.640;2023-03-05T09:33:04;10.70;68.60
68691;DHT22;55675;49.588;8.640;2023-03-05T09:35:32;10.70;68.40
68691;DHT22;55675;49.588;8.640;2023-03-05T09:37:58;10.80;68.10
68691;DHT22;55675;49.588;8.640;2023-03-05T09:40:23;10.80;67.50
68691;DHT22;55675;49.588;8.640;2023-03-05T09:42:53;10.90;66.30
68691;DHT22;55675;49.588;8.640;2023-03-05T09:52:58;10.90;59.40
68691;DHT22;55675;49.588;8.640;2023-03-05T09:55:35;10.80;59.00
68691;DHT22;55675;49.588;8.640;2023-03-05T09:58:12;10.80;59.90
68691;DHT22;55675;49.588;8.640;2023-03-05T10:00:40;11.00;60.00
68691;DHT22;55675;49.588;8.640;2023-03-05T10:03:09;11.00;59.10
68691;DHT22;55675;49.588;8.640;2023-03-05T10:08:05;11.10;58.10
68691;DHT22;55675;49.588;8.640;2023-03-05T10:10:41;11.10;57.10
68691;DHT22;55675;49.588;8.640;2023-03-05T10:13:11;11.10;57.40
68691;DHT22;55675;49.588;8.640;2023-03-05T10:15:40;11.10;56.00
68691;DHT22;55675;49.588;8.640;2023-03-05T10:18:19;11.20;57.10
68691;DHT22;55675;49.588;8.640;2023-03-05T10:20:52;11.30;56.80
68691;DHT22;55675;49.588;8.640;2023-03-05T10:23:26;11.30;56.40
68691;DHT22;55675;49.588;8.640;2023-03-05T10:25:58;11.30;55.80
68691;DHT22;55675;49.588;8.640;2023-03-05T10:39:12;10.80;55.60
68691;DHT22;55675;49.588;8.640;2023-03-05T10:44:12;10.90;55.30
68691;DHT22;55675;49.588;8.640;2023-03-05T10:46:40;11.10;55.50
68691;DHT22;55675;49.588;8.640;2023-03-05T10:49:25;11.30;55.60
68691;DHT22;55675;49.588;8.640;2023-03-05T10:52:05;11.40;54.40
68691;DHT22;55675;49.588;8.640;2023-03-05T10:54:34;11.40;52.60
68691;DHT22;55675;49.588;8.640;2023-03-05T10:59:28;11.40;52.10
68691;DHT22;55675;49.588;8.640;2023-03-05T11:02:01;11.30;51.50
68691;DHT22;55675;49.588;8.640;2023-03-05T11:04:28;11.30;51.50
68691;DHT22;55675;49.588;8.640;2023-03-05T11:06:56;11.30;51.20
68691;DHT22;55675;49.588;8.640;2023-03-05T11:09:26;11.20;50.60
68691;DHT22;55675;49.588;8.640;2023-03-05T11:14:25;11.10;51.50
68691;DHT22;55675;49.588;8.640;2023-03-05T11:16:55;11.10;51.80
68691;DHT22;55675;49.588;8.640;2023-03-05T11:24:35;10.90;51.40
68691;DHT22;55675;49.588;8.640;2023-03-05T11:27:00;10.90;52.00
68691;DHT22;55675;49.588;8.640;2023-03-05T11:29:27;10.90;52.20
68691;DHT22;55675;49.588;8.640;2023-03-05T11:31:54;11.00;52.30
68691;DHT22;55675;49.588;8.640;2023-03-05T11:34:39;11.10;52.10
68691;DHT22;55675;49.588;8.640;2023-03-05T11:37:05;11.10;51.10
68691;DHT22;55675;49.588;8.640;2023-03-05T11:39:31;11.10;51.00
68691;DHT22;55675;49.588;8.640;2023-03-05T11:42:08;11.10;51.10
68691;DHT22;55675;49.588;8.640;2023-03-05T11:44:45;11.10;51.50
68691;DHT22;55675;49.588;8.640;2023-03-05T11:47:28;11.00;51.20
68691;DHT22;55675;49.588;8.640;2023-03-05T11:49:59;11.00;50.80
68691;DHT22;55675;49.588;8.640;2023-03-05T11:52:30;10.80;50.70
68691;DHT22;55675;49.588;8.640;2023-03-05T11:54:59;10.60;50.60
68691;DHT22;55675;49.588;8.640;2023-03-05T11:57:27;10.50;51.30
68691;DHT22;55675;49.588;8.640;2023-03-05T11:59:54;10.40;51.70
68691;DHT22;55675;49.588;8.640;2023-03-05T12:02:24;10.40;51.70
68691;DHT22;55675;49.588;8.640;2023-03-05T12:04:50;10.30;51.90
68691;DHT22;55675;49.588;8.640;2023-03-05T12:07:35;10.30;52.10
68691;DHT22;55675;49.588;8.640;2023-03-05T12:10:02;10.20;52.30
68691;DHT22;55675;49.588;8.640;2023-03-05T12:15:18;10.00;52.60
68691;DHT22;55675;49.588;8.640;2023-03-05T12:17:58;9.80;52.90
68691;DHT22;55675;49.588;8.640;2023-03-05T12:23:02;9.50;53.80
68691;DHT22;55675;49.588;8.640;2023-03-05T12:25:32;9.40;54.20
68691;DHT22;55675;49.588;8.640;2023-03-05T12:27:58;9.40;54.70
68691;DHT22;55675;49.588;8.640;2023-03-05T12:32:59;9.30;55.10
68691;DHT22;55675;49.588;8.640;2023-03-05T12:35:26;9.30;55.20
68691;DHT22;55675;49.588;8.640;2023-03-05T12:47:46;9.60;56.00
68691;DHT22;55675;49.588;8.640;2023-03-05T12:52:57;9.50;55.10
68691;DHT22;55675;49.588;8.640;2023-03-05T12:55:33;9.50;55.10
68691;DHT22;55675;49.588;8.640;2023-03-05T13:00:26;9.40;55.40
68691;DHT22;55675;49.588;8.640;2023-03-05T13:02:55;9.40;55.60
68691;DHT22;55675;49.588;8.640;2023-03-05T13:05:28;9.40;55.80
68691;DHT22;55675;49.588;8.640;2023-03-05T13:08:07;9.50;55.60
68691;DHT22;55675;49.588;8.640;2023-03-05T13:10:33;9.50;55.60
68691;DHT22;55675;49.588;8.640;2023-03-05T13:12:59;9.60;55.80
68691;DHT22;55675;49.588;8.640;2023-03-05T13:15:25;9.60;55.40
68691;DHT22;55675;49.588;8.640;2023-03-05T13:17:51;9.60;55.60
68691;DHT22;55675;49.588;8.640;2023-03-05T13:25:33;9.60;56.60
68691;DHT22;55675;49.588;8.640;2023-03-05T13:28:03;9.60;56.60
68691;DHT22;55675;49.588;8.640;2023-03-05T13:30:28;9.50;56.70
68691;DHT22;55675;49.588;8.640;2023-03-05T13:32:56;9.60;56.90
68691;DHT22;55675;49.588;8.640;2023-03-05T13:35:23;9.60;57.00
68691;DHT22;55675;49.588;8.640;2023-03-05T13:37:49;9.50;57.70
68691;DHT22;55675;49.588;8.640;2023-03-05T13:40:20;9.40;57.40
68691;DHT22;55675;49.588;8.640;2023-03-05T13:42:45;9.50;57.50
68691;DHT22;55675;49.588;8.640;2023-03-05T13:45:22;9.50;57.70
68691;DHT22;55675;49.588;8.640;2023-03-05T13:47:53;9.60;57.70
68691;DHT22;55675;49.588;8.640;2023-03-05T13:50:23;9.60;57.50
68691;DHT22;55675;49.588;8.640;2023-03-05T13:52:49;9.70;57.20
68691;DHT22;55675;49.588;8.640;2023-03-05T13:55:15;9.70;56.80
68691;DHT22;55675;49.588;8.640;2023-03-05T13:57:42;9.70;57.00
68691;DHT22;55675;49.588;8.640;2023-03-05T14:02:49;9.70;57.10
68691;DHT22;55675;49.588;8.640;2023-03-05T14:05:14;9.80;57.00
68691;DHT22;55675;49.588;8.640;2023-03-05T14:07:40;9.80;57.00
68691;DHT22;55675;49.588;8.640;2023-03-05T14:10:24;9.80;56.80
68691;DHT22;55675;49.588;8.640;2023-03-05T14:12:51;9.80;56.80
68691;DHT22;55675;49.588;8.640;2023-03-05T14:15:20;9.70;56.50
68691;DHT22;55675;49.588;8.640;2023-03-05T14:17:47;9.70;56.70
68691;DHT22;55675;49.588;8.640;2023-03-05T14:20:18;9.70;56.90
68691;DHT22;55675;49.588;8.640;2023-03-05T14:22:46;9.70;56.80
68691;DHT22;55675;49.588;8.640;2023-03-05T14:27:50;9.40;57.00
68691;DHT22;55675;49.588;8.640;2023-03-05T14:30:15;9.30;57.50
68691;DHT22;55675;49.588;8.640;2023-03-05T14:32:43;9.10;57.40
68691;DHT22;55675;49.588;8.640;2023-03-05T14:35:15;9.10;57.60
68691;DHT22;55675;49.588;8.640;2023-03-05T14:37:41;9.00;58.10
68691;DHT22;55675;49.588;8.640;2023-03-05T14:42:49;8.90;58.90
68691;DHT22;55675;49.588;8.640;2023-03-05T14:45:16;8.80;59.10
68691;DHT22;55675;49.588;8.640;2023-03-05T14:47:42;8.80;59.30
68691;DHT22;55675;49.588;8.640;2023-03-05T14:50:31;8.70;58.70
68691;DHT22;55675;49.588;8.640;2023-03-05T14:52:58;8.70;59.00
68691;DHT22;55675;49.588;8.640;2023-03-05T14:55:26;8.60;59.80
68691;DHT22;55675;49.588;8.640;2023-03-05T14:57:52;8.60;60.00
68691;DHT22;55675;49.588;8.640;2023-03-05T15:00:22;8.50;59.90
68691;DHT22;55675;49.588;8.640;2023-03-05T15:02:48;8.60;60.00
68691;DHT22;55675;49.588;8.640;2023-03-05T15:05:14;8.50;60.10
68691;DHT22;55675;49.588;8.640;2023-03-05T15:07:39;8.50;60.30
68691;DHT22;55675;49.588;8.640;2023-03-05T15:10:05;8.50;60.30
68691;DHT22;55675;49.588;8.640;2023-03-05T15:12:32;8.60;60.30
68691;DHT22;55675;49.588;8.640;2023-03-05T15:14:57;8.60;60.20
68691;DHT22;55675;49.588;8.640;2023-03-05T15:17:36;8.60;60.70
68691;DHT22;55675;49.588;8.640;2023-03-05T15:20:04;8.60;60.70
68691;DHT22;55675;49.588;8.640;2023-03-05T15:22:34;8.70;61.00
68691;DHT22;55675;49.588;8.640;2023-03-05T15:25:00;8.60;60.70
68691;DHT22;55675;49.588;8.640;2023-03-05T15:27:25;8.70;60.80
68691;DHT22;55675;49.588;8.640;2023-03-05T15:29:51;8.70;60.90
68691;DHT22;55675;49.588;8.640;2023-03-05T15:32:16;8.70;61.00
68691;DHT22;55675;49.588;8.640;2023-03-05T15:34:42;8.80;61.20
68691;DHT22;55675;49.588;8.640;2023-03-05T15:37:07;8.80;61.00
68691;DHT22;55675;49.588;8.640;2023-03-05T15:39:33;8.90;61.10
68691;DHT22;55675;49.588;8.640;2023-03-05T15:41:58;8.90;61.10
68691;DHT22;55675;49.588;8.640;2023-03-05T15:44:24;8.90;60.30
68691;DHT22;55675;49.588;8.640;2023-03-05T15:46:49;8.90;60.20
68691;DHT22;55675;49.588;8.640;2023-03-05T15:49:15;8.90;60.00
68691;DHT22;55675;49.588;8.640;2023-03-05T15:51:41;9.00;60.10
68691;DHT22;55675;49.588;8.640;2023-03-05T15:54:06;9.00;60.20
68691;DHT22;55675;49.588;8.640;2023-03-05T15:56:32;9.10;60.30
68691;DHT22;55675;49.588;8.640;2023-03-05T15:58:57;9.10;60.10
68691;DHT22;55675;49.588;8.640;2023-03-05T16:01:23;9.20;60.10
68691;DHT22;55675;49.588;8.640;2023-03-05T16:03:49;9.20;60.10
68691;DHT22;55675;49.588;8.640;2023-03-05T16:06:14;9.20;60.20
68691;DHT22;55675;49.588;8.640;2023-03-05T16:08:41;9.20;60.10
68691;DHT22;55675;49.588;8.640;2023-03-05T16:11:08;9.30;60.50
68691;DHT22;55675;49.588;8.640;2023-03-05T16:13:34;9.30;60.60
68691;DHT22;55675;49.588;8.640;2023-03-05T16:16:00;9.30;60.70
68691;DHT22;55675;49.588;8.640;2023-03-05T16:18:26;9.20;60.90
68691;DHT22;55675;49.588;8.640;2023-03-05T16:20:54;9.10;60.80
68691;DHT22;55675;49.588;8.640;2023-03-05T16:23:19;9.10;61.00
68691;DHT22;55675;49.588;8.640;2023-03-05T16:25:46;9.10;61.20
68691;DHT22;55675;49.588;8.640;2023-03-05T16:28:11;9.00;61.30
68691;DHT22;55675;49.588;8.640;2023-03-05T16:30:37;9.00;61.30
68691;DHT22;55675;49.588;8.640;2023-03-05T16:33:04;9.00;61.30
68691;DHT22;55675;49.588;8.640;2023-03-05T16:35:29;8.90;61.50
68691;DHT22;55675;49.588;8.640;2023-03-05T16:37:55;8.90;61.60
68691;DHT22;55675;49.588;8.640;2023-03-05T16:40:20;8.90;61.70
68691;DHT22;55675;49.588;8.640;2023-03-05T16:42:46;8.90;61.80
68691;DHT22;55675;49.588;8.640;2023-03-05T16:45:11;8.80;61.90
68691;DHT22;55675;49.588;8.640;2023-03-05T16:47:37;8.80;62.00
68691;DHT22;55675;49.588;8.640;2023-03-05T16:50:03;8.80;62.30
68691;DHT22;55675;49.588;8.640;2023-03-05T16:52:28;8.70;62.40
68691;DHT22;55675;49.588;8.640;2023-03-05T16:54:54;8.60;62.50